Airfield :
LOGIN :

Register | Disclaimer

   EN    FR    IT 

 










Legend :    VFR   Marginal VFR   IFR   Intensive IFR   Very Intensive IFR
Visi :
Ceiling :
>= 8 km
>= 3000ft
5 to 8 km
1000 to 3000 ft
1500m to 5 km
500 to 1000 ft
800 to 1500m
200 to 500 ft
< 800m
< 200 ft
Symbols :   Thunderstorms  Fog  Heavy snow  Heavy precipitations  Wind > 20 kt
SIGMETs :     Misc.  Thunderstorms  Icing  Turbulence  Mountain Waves  Volcanic Ashes






- Airport Elevation : 13 ft
- IATA code : LYX


EGMD - Lydd

CURRENT METAR :
  • 070720Z 34009KT 9999 FEW018 BKN034 17/15 Q1026

EXPIRED METARs :
  • 070650Z AUTO 35008KT 9999 FEW016/// SCT023/// BKN028/// 16/15 Q1026
  • 070620Z AUTO 36012KT 5000 -DZ FEW010/// BKN015/// BKN019/// 17/15 Q1026
  • 070550Z AUTO 29005KT 9999 FEW030/// OVC035/// 17/15 Q1025
  • 070520Z AUTO 29005KT 9999 OVC037/// 17/14 Q1025
  • 070450Z AUTO 28006KT 9999 OVC038/// 16/14 Q1025

TAF TAF EGMD
Valid from the 07 at 06:00 until the 07 at 15:00 UTC


070452Z 0706/0715 34010KT 9999 SCT030
PROB30 0706/0709 8000
BECMG 0712/0715 09011KT
ATIS : +44 1797 322 422



MET'MAP, your aeronautical weather chart ! - Copyright ORBIFLY December 2007 - Disclaimer

ORBIFLY MET'MAP TEAM :

Programming & Development : Alexandra Zaïnal
Original concept : Baudouin d'Aumeries
Technical & hardware support : Manuel Goepfert
Assistance : Marc-Olivier Méhu




SOURCES & CREDITS :

   NOAA